sensor_id;sensor_type;location;lat;lon;timestamp;temperature;humidity
70214;DHT22;60138;55.808;37.078;2023-03-23T00:01:54;5.59;59.83
70214;DHT22;60138;55.808;37.078;2023-03-23T00:04:20;5.57;59.83
70214;DHT22;60138;55.808;37.078;2023-03-23T00:06:45;5.60;59.82
70214;DHT22;60138;55.808;37.078;2023-03-23T00:09:13;5.60;59.88
70214;DHT22;60138;55.808;37.078;2023-03-23T00:11:39;5.60;59.91
70214;DHT22;60138;55.808;37.078;2023-03-23T00:14:05;5.62;59.99
70214;DHT22;60138;55.808;37.078;2023-03-23T00:16:33;5.62;59.83
70214;DHT22;60138;55.808;37.078;2023-03-23T00:19:04;5.63;59.91
70214;DHT22;60138;55.808;37.078;2023-03-23T00:21:36;5.62;60.11
70214;DHT22;60138;55.808;37.078;2023-03-23T00:24:06;5.62;60.15
70214;DHT22;60138;55.808;37.078;2023-03-23T00:26:33;5.63;59.99
70214;DHT22;60138;55.808;37.078;2023-03-23T00:29:03;5.63;60.15
70214;DHT22;60138;55.808;37.078;2023-03-23T00:31:30;5.63;60.14
70214;DHT22;60138;55.808;37.078;2023-03-23T00:33:55;5.62;60.23
70214;DHT22;60138;55.808;37.078;2023-03-23T00:36:21;5.62;60.12
70214;DHT22;60138;55.808;37.078;2023-03-23T00:38:47;5.62;60.15
70214;DHT22;60138;55.808;37.078;2023-03-23T00:41:12;5.62;60.25
70214;DHT22;60138;55.808;37.078;2023-03-23T00:43:38;5.64;60.33
70214;DHT22;60138;55.808;37.078;2023-03-23T00:46:04;5.64;60.24
70214;DHT22;60138;55.808;37.078;2023-03-23T00:48:29;5.63;60.31
70214;DHT22;60138;55.808;37.078;2023-03-23T00:50:55;5.62;60.30
70214;DHT22;60138;55.808;37.078;2023-03-23T00:53:22;5.63;60.35
70214;DHT22;60138;55.808;37.078;2023-03-23T00:55:48;5.61;60.31
70214;DHT22;60138;55.808;37.078;2023-03-23T00:58:15;5.60;60.40
70214;DHT22;60138;55.808;37.078;2023-03-23T01:00:42;5.60;60.44
70214;DHT22;60138;55.808;37.078;2023-03-23T01:03:09;5.62;60.42
70214;DHT22;60138;55.808;37.078;2023-03-23T01:05:35;5.61;60.52
70214;DHT22;60138;55.808;37.078;2023-03-23T01:08:02;5.61;60.57
70214;DHT22;60138;55.808;37.078;2023-03-23T01:10:30;5.61;60.47
70214;DHT22;60138;55.808;37.078;2023-03-23T01:12:56;5.60;60.44
70214;DHT22;60138;55.808;37.078;2023-03-23T01:15:22;5.56;60.45
70214;DHT22;60138;55.808;37.078;2023-03-23T01:17:47;5.55;60.47
70214;DHT22;60138;55.808;37.078;2023-03-23T01:20:14;5.53;60.61
70214;DHT22;60138;55.808;37.078;2023-03-23T01:22:41;5.52;60.67
70214;DHT22;60138;55.808;37.078;2023-03-23T01:25:09;5.48;60.76
70214;DHT22;60138;55.808;37.078;2023-03-23T01:27:35;5.47;60.86
70214;DHT22;60138;55.808;37.078;2023-03-23T01:30:01;5.45;60.94
70214;DHT22;60138;55.808;37.078;2023-03-23T01:32:27;5.41;60.99
70214;DHT22;60138;55.808;37.078;2023-03-23T01:34:53;5.33;61.05
70214;DHT22;60138;55.808;37.078;2023-03-23T01:37:19;5.25;61.26
70214;DHT22;60138;55.808;37.078;2023-03-23T01:39:45;5.18;61.36
70214;DHT22;60138;55.808;37.078;2023-03-23T01:42:11;5.11;61.51
70214;DHT22;60138;55.808;37.078;2023-03-23T01:47:05;5.00;61.87
70214;DHT22;60138;55.808;37.078;2023-03-23T01:49:37;4.95;61.98
70214;DHT22;60138;55.808;37.078;2023-03-23T01:52:11;4.94;62.28
70214;DHT22;60138;55.808;37.078;2023-03-23T01:54:39;4.94;62.21
70214;DHT22;60138;55.808;37.078;2023-03-23T01:57:10;4.93;62.19
70214;DHT22;60138;55.808;37.078;2023-03-23T01:59:37;4.94;62.26
70214;DHT22;60138;55.808;37.078;2023-03-23T02:02:35;4.92;62.34
70214;DHT22;60138;55.808;37.078;2023-03-23T02:05:06;4.90;62.34
70214;DHT22;60138;55.808;37.078;2023-03-23T02:07:34;4.84;62.64
70214;DHT22;60138;55.808;37.078;2023-03-23T02:10:02;4.82;62.53
70214;DHT22;60138;55.808;37.078;2023-03-23T02:12:32;4.80;62.45
70214;DHT22;60138;55.808;37.078;2023-03-23T02:14:58;4.76;62.87
70214;DHT22;60138;55.808;37.078;2023-03-23T02:17:32;4.71;62.81
70214;DHT22;60138;55.808;37.078;2023-03-23T02:31:41;4.37;63.31
70214;DHT22;60138;55.808;37.078;2023-03-23T02:34:21;4.26;63.34
70214;DHT22;60138;55.808;37.078;2023-03-23T02:37:03;4.16;63.76
70214;DHT22;60138;55.808;37.078;2023-03-23T02:40:39;4.07;64.18
70214;DHT22;60138;55.808;37.078;2023-03-23T02:42:32;3.95;64.08
70214;DHT22;60138;55.808;37.078;2023-03-23T02:45:02;3.87;64.35
70214;DHT22;60138;55.808;37.078;2023-03-23T02:47:29;3.76;64.43
70214;DHT22;60138;55.808;37.078;2023-03-23T02:49:57;3.65;64.84
70214;DHT22;60138;55.808;37.078;2023-03-23T02:52:26;3.59;64.86
70214;DHT22;60138;55.808;37.078;2023-03-23T02:54:53;3.55;65.37
70214;DHT22;60138;55.808;37.078;2023-03-23T02:57:21;3.47;65.33
70214;DHT22;60138;55.808;37.078;2023-03-23T02:59:48;3.41;65.32
70214;DHT22;60138;55.808;37.078;2023-03-23T03:02:17;3.35;65.56
70214;DHT22;60138;55.808;37.078;2023-03-23T03:11:10;3.18;66.16
70214;DHT22;60138;55.808;37.078;2023-03-23T03:13:53;3.14;66.33
70214;DHT22;60138;55.808;37.078;2023-03-23T03:16:38;3.09;66.60
70214;DHT22;60138;55.808;37.078;2023-03-23T03:19:13;3.06;66.91
70214;DHT22;60138;55.808;37.078;2023-03-23T03:21:45;3.05;66.69
70214;DHT22;60138;55.808;37.078;2023-03-23T03:24:16;3.02;67.04
70214;DHT22;60138;55.808;37.078;2023-03-23T03:26:47;3.03;66.90
70214;DHT22;60138;55.808;37.078;2023-03-23T03:29:23;3.02;66.85
70214;DHT22;60138;55.808;37.078;2023-03-23T03:31:53;3.01;67.14
70214;DHT22;60138;55.808;37.078;2023-03-23T03:34:20;2.99;67.20
70214;DHT22;60138;55.808;37.078;2023-03-23T03:36:48;3.01;67.05
70214;DHT22;60138;55.808;37.078;2023-03-23T03:39:15;2.97;67.29
70214;DHT22;60138;55.808;37.078;2023-03-23T03:41:42;2.98;68.47
70214;DHT22;60138;55.808;37.078;2023-03-23T03:44:08;3.03;67.55
70214;DHT22;60138;55.808;37.078;2023-03-23T03:46:35;3.03;67.38
70214;DHT22;60138;55.808;37.078;2023-03-23T03:49:03;3.04;67.41
70214;DHT22;60138;55.808;37.078;2023-03-23T03:51:31;3.04;67.43
70214;DHT22;60138;55.808;37.078;2023-03-23T03:53:57;3.05;68.05
70214;DHT22;60138;55.808;37.078;2023-03-23T03:56:23;3.09;67.79
70214;DHT22;60138;55.808;37.078;2023-03-23T03:59:03;3.11;67.81
70214;DHT22;60138;55.808;37.078;2023-03-23T04:01:46;3.10;67.83
70214;DHT22;60138;55.808;37.078;2023-03-23T04:04:12;3.12;67.76
70214;DHT22;60138;55.808;37.078;2023-03-23T04:06:39;3.15;67.97
70214;DHT22;60138;55.808;37.078;2023-03-23T04:09:05;3.18;67.80
70214;DHT22;60138;55.808;37.078;2023-03-23T04:11:32;3.21;67.87
70214;DHT22;60138;55.808;37.078;2023-03-23T04:14:16;3.20;67.88
70214;DHT22;60138;55.808;37.078;2023-03-23T04:16:43;3.20;68.36
70214;DHT22;60138;55.808;37.078;2023-03-23T04:19:09;3.21;67.97
70214;DHT22;60138;55.808;37.078;2023-03-23T04:21:35;3.27;67.81
70214;DHT22;60138;55.808;37.078;2023-03-23T04:24:01;3.34;67.67
70214;DHT22;60138;55.808;37.078;2023-03-23T04:26:28;3.38;67.84
70214;DHT22;60138;55.808;37.078;2023-03-23T04:28:55;3.41;66.93
70214;DHT22;60138;55.808;37.078;2023-03-23T04:31:34;3.45;67.55
70214;DHT22;60138;55.808;37.078;2023-03-23T04:34:24;3.49;67.35
70214;DHT22;60138;55.808;37.078;2023-03-23T04:36:52;3.53;67.52
70214;DHT22;60138;55.808;37.078;2023-03-23T04:39:22;3.53;67.61
70214;DHT22;60138;55.808;37.078;2023-03-23T04:41:47;3.52;67.68
70214;DHT22;60138;55.808;37.078;2023-03-23T04:44:36;3.57;67.62
70214;DHT22;60138;55.808;37.078;2023-03-23T04:47:08;3.61;67.15
70214;DHT22;60138;55.808;37.078;2023-03-23T04:49:36;3.64;67.23
70214;DHT22;60138;55.808;37.078;2023-03-23T04:52:22;3.65;66.78
70214;DHT22;60138;55.808;37.078;2023-03-23T04:54:53;3.72;66.77
70214;DHT22;60138;55.808;37.078;2023-03-23T04:57:19;3.77;67.45
70214;DHT22;60138;55.808;37.078;2023-03-23T05:00:04;3.78;67.28
70214;DHT22;60138;55.808;37.078;2023-03-23T05:02:38;3.82;66.88
70214;DHT22;60138;55.808;37.078;2023-03-23T05:05:07;3.88;66.82
70214;DHT22;60138;55.808;37.078;2023-03-23T05:07:34;3.92;67.11
70214;DHT22;60138;55.808;37.078;2023-03-23T05:10:00;3.99;67.30
70214;DHT22;60138;55.808;37.078;2023-03-23T05:12:29;4.04;67.30
70214;DHT22;60138;55.808;37.078;2023-03-23T05:15:02;4.06;67.17
70214;DHT22;60138;55.808;37.078;2023-03-23T05:17:30;4.08;66.98
70214;DHT22;60138;55.808;37.078;2023-03-23T05:19:59;4.18;66.91
70214;DHT22;60138;55.808;37.078;2023-03-23T05:22:33;4.22;66.85
70214;DHT22;60138;55.808;37.078;2023-03-23T05:25:01;4.27;66.25
70214;DHT22;60138;55.808;37.078;2023-03-23T05:27:26;4.37;66.58
70214;DHT22;60138;55.808;37.078;2023-03-23T05:29:53;4.42;66.78
70214;DHT22;60138;55.808;37.078;2023-03-23T05:32:20;4.46;66.49
70214;DHT22;60138;55.808;37.078;2023-03-23T05:34:47;4.48;66.58
70214;DHT22;60138;55.808;37.078;2023-03-23T05:37:12;4.56;66.46
70214;DHT22;60138;55.808;37.078;2023-03-23T05:39:45;4.64;65.82
70214;DHT22;60138;55.808;37.078;2023-03-23T05:42:13;4.73;66.27
70214;DHT22;60138;55.808;37.078;2023-03-23T05:45:03;4.81;66.53
70214;DHT22;60138;55.808;37.078;2023-03-23T05:47:30;4.83;66.06
70214;DHT22;60138;55.808;37.078;2023-03-23T05:50:02;4.89;66.07
70214;DHT22;60138;55.808;37.078;2023-03-23T05:52:29;4.91;65.97
70214;DHT22;60138;55.808;37.078;2023-03-23T05:54:55;5.00;65.74
70214;DHT22;60138;55.808;37.078;2023-03-23T05:57:22;5.07;65.80
70214;DHT22;60138;55.808;37.078;2023-03-23T05:59:58;5.13;65.49
70214;DHT22;60138;55.808;37.078;2023-03-23T06:02:25;5.19;64.98
70214;DHT22;60138;55.808;37.078;2023-03-23T06:04:52;5.27;65.33
70214;DHT22;60138;55.808;37.078;2023-03-23T06:07:24;5.38;65.38
70214;DHT22;60138;55.808;37.078;2023-03-23T06:09:56;5.45;64.51
70214;DHT22;60138;55.808;37.078;2023-03-23T06:12:22;5.53;64.69
70214;DHT22;60138;55.808;37.078;2023-03-23T06:15:00;5.60;64.13
70214;DHT22;60138;55.808;37.078;2023-03-23T06:17:43;5.67;64.34
70214;DHT22;60138;55.808;37.078;2023-03-23T06:20:09;5.71;64.30
70214;DHT22;60138;55.808;37.078;2023-03-23T06:22:38;5.80;64.06
70214;DHT22;60138;55.808;37.078;2023-03-23T06:25:10;5.87;64.01
70214;DHT22;60138;55.808;37.078;2023-03-23T06:27:40;5.90;63.79
70214;DHT22;60138;55.808;37.078;2023-03-23T06:30:07;5.95;63.83
70214;DHT22;60138;55.808;37.078;2023-03-23T06:32:34;5.97;63.89
70214;DHT22;60138;55.808;37.078;2023-03-23T06:35:01;5.95;63.80
70214;DHT22;60138;55.808;37.078;2023-03-23T06:37:56;5.97;63.85
70214;DHT22;60138;55.808;37.078;2023-03-23T06:40:33;6.02;63.82
70214;DHT22;60138;55.808;37.078;2023-03-23T06:42:59;6.06;63.61
70214;DHT22;60138;55.808;37.078;2023-03-23T06:45:25;6.16;63.25
70214;DHT22;60138;55.808;37.078;2023-03-23T06:48:06;6.21;63.31
70214;DHT22;60138;55.808;37.078;2023-03-23T06:50:32;6.25;63.19
70214;DHT22;60138;55.808;37.078;2023-03-23T06:52:58;6.28;62.99
70214;DHT22;60138;55.808;37.078;2023-03-23T06:55:24;6.31;63.05
70214;DHT22;60138;55.808;37.078;2023-03-23T06:57:50;6.39;62.84
70214;DHT22;60138;55.808;37.078;2023-03-23T07:00:15;6.46;62.63
70214;DHT22;60138;55.808;37.078;2023-03-23T07:02:43;6.54;62.35
70214;DHT22;60138;55.808;37.078;2023-03-23T07:05:10;6.60;62.51
70214;DHT22;60138;55.808;37.078;2023-03-23T07:07:38;6.67;62.27
70214;DHT22;60138;55.808;37.078;2023-03-23T07:10:21;6.70;62.18
70214;DHT22;60138;55.808;37.078;2023-03-23T07:12:47;6.72;62.07
70214;DHT22;60138;55.808;37.078;2023-03-23T07:15:12;6.81;62.15
70214;DHT22;60138;55.808;37.078;2023-03-23T07:17:41;6.84;61.74
70214;DHT22;60138;55.808;37.078;2023-03-23T07:20:27;6.85;61.67
70214;DHT22;60138;55.808;37.078;2023-03-23T07:22:54;6.90;61.80
70214;DHT22;60138;55.808;37.078;2023-03-23T07:25:36;7.01;61.59
70214;DHT22;60138;55.808;37.078;2023-03-23T07:28:03;7.02;61.70
70214;DHT22;60138;55.808;37.078;2023-03-23T07:30:29;7.12;61.18
70214;DHT22;60138;55.808;37.078;2023-03-23T07:32:56;7.15;61.16
70214;DHT22;60138;55.808;37.078;2023-03-23T07:35:23;7.25;60.34
70214;DHT22;60138;55.808;37.078;2023-03-23T07:37:59;7.31;60.83
70214;DHT22;60138;55.808;37.078;2023-03-23T07:40:25;7.37;60.81
70214;DHT22;60138;55.808;37.078;2023-03-23T07:42:55;7.46;60.57
70214;DHT22;60138;55.808;37.078;2023-03-23T07:45:35;7.50;60.41
70214;DHT22;60138;55.808;37.078;2023-03-23T07:48:01;7.57;59.57
70214;DHT22;60138;55.808;37.078;2023-03-23T07:50:29;7.59;60.03
70214;DHT22;60138;55.808;37.078;2023-03-23T07:52:56;7.64;59.98
70214;DHT22;60138;55.808;37.078;2023-03-23T07:55:24;7.71;59.90
70214;DHT22;60138;55.808;37.078;2023-03-23T07:58:06;7.83;60.09
70214;DHT22;60138;55.808;37.078;2023-03-23T08:00:32;7.88;59.69
70214;DHT22;60138;55.808;37.078;2023-03-23T08:02:57;7.93;59.58
70214;DHT22;60138;55.808;37.078;2023-03-23T08:05:47;7.98;59.38
70214;DHT22;60138;55.808;37.078;2023-03-23T08:08:13;8.03;59.12
70214;DHT22;60138;55.808;37.078;2023-03-23T08:11:08;8.12;59.67
70214;DHT22;60138;55.808;37.078;2023-03-23T08:13:37;8.15;58.45
70214;DHT22;60138;55.808;37.078;2023-03-23T08:16:18;8.19;59.37
70214;DHT22;60138;55.808;37.078;2023-03-23T08:19:00;8.20;59.28
70214;DHT22;60138;55.808;37.078;2023-03-23T08:21:38;8.29;58.67
70214;DHT22;60138;55.808;37.078;2023-03-23T08:24:24;8.35;58.57
70214;DHT22;60138;55.808;37.078;2023-03-23T08:27:08;8.43;58.22
70214;DHT22;60138;55.808;37.078;2023-03-23T08:29:52;8.49;59.47
70214;DHT22;60138;55.808;37.078;2023-03-23T08:32:38;8.50;58.03
70214;DHT22;60138;55.808;37.078;2023-03-23T08:35:40;8.53;58.61
70214;DHT22;60138;55.808;37.078;2023-03-23T08:38:06;8.61;58.55
70214;DHT22;60138;55.808;37.078;2023-03-23T08:41:10;8.67;58.67
70214;DHT22;60138;55.808;37.078;2023-03-23T08:43:54;8.73;58.76
70214;DHT22;60138;55.808;37.078;2023-03-23T08:46:39;8.76;57.63
70214;DHT22;60138;55.808;37.078;2023-03-23T08:49:23;8.79;57.20
70214;DHT22;60138;55.808;37.078;2023-03-23T08:51:49;8.86;56.47
70214;DHT22;60138;55.808;37.078;2023-03-23T08:54:35;8.95;57.07
70214;DHT22;60138;55.808;37.078;2023-03-23T08:57:20;9.02;58.11
70214;DHT22;60138;55.808;37.078;2023-03-23T08:59:56;9.11;57.06
70214;DHT22;60138;55.808;37.078;2023-03-23T09:02:54;9.19;55.75
70214;DHT22;60138;55.808;37.078;2023-03-23T09:05:23;9.22;56.44
70214;DHT22;60138;55.808;37.078;2023-03-23T09:08:15;9.27;56.18
70214;DHT22;60138;55.808;37.078;2023-03-23T09:10:41;9.37;56.47
70214;DHT22;60138;55.808;37.078;2023-03-23T09:13:07;9.42;56.01
70214;DHT22;60138;55.808;37.078;2023-03-23T09:15:33;9.47;55.77
70214;DHT22;60138;55.808;37.078;2023-03-23T09:17:59;9.53;55.66
70214;DHT22;60138;55.808;37.078;2023-03-23T09:20:26;9.62;54.39
70214;DHT22;60138;55.808;37.078;2023-03-23T09:22:54;9.67;55.29
70214;DHT22;60138;55.808;37.078;2023-03-23T09:25:23;9.72;54.71
70214;DHT22;60138;55.808;37.078;2023-03-23T09:27:51;9.75;55.65
70214;DHT22;60138;55.808;37.078;2023-03-23T09:30:18;9.76;54.61
70214;DHT22;60138;55.808;37.078;2023-03-23T09:32:43;9.77;54.96
70214;DHT22;60138;55.808;37.078;2023-03-23T09:35:09;9.81;54.41
70214;DHT22;60138;55.808;37.078;2023-03-23T09:37:35;9.85;54.14
70214;DHT22;60138;55.808;37.078;2023-03-23T09:40:03;9.91;54.17
70214;DHT22;60138;55.808;37.078;2023-03-23T09:42:51;9.98;53.75
70214;DHT22;60138;55.808;37.078;2023-03-23T09:45:47;10.04;54.07
70214;DHT22;60138;55.808;37.078;2023-03-23T09:48:46;10.13;54.34
70214;DHT22;60138;55.808;37.078;2023-03-23T09:54:31;10.28;53.91
70214;DHT22;60138;55.808;37.078;2023-03-23T09:57:00;10.33;53.52
70214;DHT22;60138;55.808;37.078;2023-03-23T09:59:40;10.39;52.73
70214;DHT22;60138;55.808;37.078;2023-03-23T10:02:14;10.55;54.36
70214;DHT22;60138;55.808;37.078;2023-03-23T10:04:46;10.66;52.19
70214;DHT22;60138;55.808;37.078;2023-03-23T10:07:20;10.81;51.73
70214;DHT22;60138;55.808;37.078;2023-03-23T10:09:50;10.93;55.82
70214;DHT22;60138;55.808;37.078;2023-03-23T10:12:49;11.04;54.35
70214;DHT22;60138;55.808;37.078;2023-03-23T10:15:29;11.16;55.31
70214;DHT22;60138;55.808;37.078;2023-03-23T10:28:46;11.44;53.56
70214;DHT22;60138;55.808;37.078;2023-03-23T10:31:17;11.54;51.11
70214;DHT22;60138;55.808;37.078;2023-03-23T10:33:54;11.67;51.82
70214;DHT22;60138;55.808;37.078;2023-03-23T10:36:34;11.84;50.99
70214;DHT22;60138;55.808;37.078;2023-03-23T10:41:30;12.13;51.21
70214;DHT22;60138;55.808;37.078;2023-03-23T10:43:56;12.26;50.11
70214;DHT22;60138;55.808;37.078;2023-03-23T10:46:32;12.51;51.44
70214;DHT22;60138;55.808;37.078;2023-03-23T10:49:01;12.71;51.81
70214;DHT22;60138;55.808;37.078;2023-03-23T10:51:34;12.94;51.97
70214;DHT22;60138;55.808;37.078;2023-03-23T10:54:02;13.14;49.41
70214;DHT22;60138;55.808;37.078;2023-03-23T10:56:38;13.19;47.53
70214;DHT22;60138;55.808;37.078;2023-03-23T10:59:21;13.24;48.30
70214;DHT22;60138;55.808;37.078;2023-03-23T11:01:53;13.32;48.98
70214;DHT22;60138;55.808;37.078;2023-03-23T11:04:20;13.31;51.50
70214;DHT22;60138;55.808;37.078;2023-03-23T11:06:51;13.31;46.95
70214;DHT22;60138;55.808;37.078;2023-03-23T11:09:19;13.30;48.26
70214;DHT22;60138;55.808;37.078;2023-03-23T11:17:02;13.41;50.67
70214;DHT22;60138;55.808;37.078;2023-03-23T11:19:37;13.53;49.95
70214;DHT22;60138;55.808;37.078;2023-03-23T11:24:29;13.61;47.95
70214;DHT22;60138;55.808;37.078;2023-03-23T11:26:57;13.60;48.37
70214;DHT22;60138;55.808;37.078;2023-03-23T11:29:25;13.66;47.82
70214;DHT22;60138;55.808;37.078;2023-03-23T11:34:47;14.07;50.30
70214;DHT22;60138;55.808;37.078;2023-03-23T11:37:28;14.26;47.86
70214;DHT22;60138;55.808;37.078;2023-03-23T11:39:57;14.37;48.46
70214;DHT22;60138;55.808;37.078;2023-03-23T11:42:56;14.28;44.57
70214;DHT22;60138;55.808;37.078;2023-03-23T11:48:00;14.12;49.44
70214;DHT22;60138;55.808;37.078;2023-03-23T11:50:33;14.04;47.44
70214;DHT22;60138;55.808;37.078;2023-03-23T11:58:16;14.08;46.87
70214;DHT22;60138;55.808;37.078;2023-03-23T12:03:26;14.11;45.91
70214;DHT22;60138;55.808;37.078;2023-03-23T12:06:08;14.09;48.57
70214;DHT22;60138;55.808;37.078;2023-03-23T12:11:30;14.05;47.05
70214;DHT22;60138;55.808;37.078;2023-03-23T12:14:19;14.06;46.94
70214;DHT22;60138;55.808;37.078;2023-03-23T12:19:37;13.88;47.35
70214;DHT22;60138;55.808;37.078;2023-03-23T12:39:30;14.10;46.15
70214;DHT22;60138;55.808;37.078;2023-03-23T12:42:25;14.34;46.88
70214;DHT22;60138;55.808;37.078;2023-03-23T12:44:54;14.50;44.70
70214;DHT22;60138;55.808;37.078;2023-03-23T12:47:31;14.50;45.28
70214;DHT22;60138;55.808;37.078;2023-03-23T12:50:23;14.47;46.19
70214;DHT22;60138;55.808;37.078;2023-03-23T12:58:09;14.23;43.79
70214;DHT22;60138;55.808;37.078;2023-03-23T13:06:00;14.08;45.73
70214;DHT22;60138;55.808;37.078;2023-03-23T13:08:37;14.07;45.27
70214;DHT22;60138;55.808;37.078;2023-03-23T13:11:10;14.07;46.14
70214;DHT22;60138;55.808;37.078;2023-03-23T13:13:52;14.06;43.99
70214;DHT22;60138;55.808;37.078;2023-03-23T13:18:52;13.97;49.12
70214;DHT22;60138;55.808;37.078;2023-03-23T13:21:34;13.86;46.55
70214;DHT22;60138;55.808;37.078;2023-03-23T13:24:08;13.70;47.23
70214;DHT22;60138;55.808;37.078;2023-03-23T13:26:40;13.53;47.42
70214;DHT22;60138;55.808;37.078;2023-03-23T13:29:13;13.41;47.52
70214;DHT22;60138;55.808;37.078;2023-03-23T13:31:40;13.30;47.01
70214;DHT22;60138;55.808;37.078;2023-03-23T13:37:02;12.97;47.38
70214;DHT22;60138;55.808;37.078;2023-03-23T13:42:04;12.79;47.44
70214;DHT22;60138;55.808;37.078;2023-03-23T13:44:55;12.77;47.46
70214;DHT22;60138;55.808;37.078;2023-03-23T13:49:59;12.93;47.38
70214;DHT22;60138;55.808;37.078;2023-03-23T14:10:58;12.79;47.89
70214;DHT22;60138;55.808;37.078;2023-03-23T14:16:04;12.65;48.25
70214;DHT22;60138;55.808;37.078;2023-03-23T14:18:38;12.63;48.35
70214;DHT22;60138;55.808;37.078;2023-03-23T14:21:06;12.61;48.60
70214;DHT22;60138;55.808;37.078;2023-03-23T14:23:33;12.57;48.31
70214;DHT22;60138;55.808;37.078;2023-03-23T14:26:02;12.49;48.47
70214;DHT22;60138;55.808;37.078;2023-03-23T14:28:30;12.41;47.72
70214;DHT22;60138;55.808;37.078;2023-03-23T14:30:57;12.30;48.05
70214;DHT22;60138;55.808;37.078;2023-03-23T14:33:25;12.28;48.38
70214;DHT22;60138;55.808;37.078;2023-03-23T14:35:51;12.30;49.05
70214;DHT22;60138;55.808;37.078;2023-03-23T14:38:22;12.35;48.70
70214;DHT22;60138;55.808;37.078;2023-03-23T14:40:48;12.38;48.98
70214;DHT22;60138;55.808;37.078;2023-03-23T14:43:16;12.46;48.70
70214;DHT22;60138;55.808;37.078;2023-03-23T14:45:43;12.45;49.27
70214;DHT22;60138;55.808;37.078;2023-03-23T14:48:13;12.42;48.86
70214;DHT22;60138;55.808;37.078;2023-03-23T14:50:42;12.36;48.51
70214;DHT22;60138;55.808;37.078;2023-03-23T14:53:21;12.29;48.19
70214;DHT22;60138;55.808;37.078;2023-03-23T14:55:48;12.22;48.95
70214;DHT22;60138;55.808;37.078;2023-03-23T14:58:17;12.16;48.99
70214;DHT22;60138;55.808;37.078;2023-03-23T15:03:37;12.02;49.62
70214;DHT22;60138;55.808;37.078;2023-03-23T15:06:09;11.94;49.46
70214;DHT22;60138;55.808;37.078;2023-03-23T15:08:35;11.87;50.19
70214;DHT22;60138;55.808;37.078;2023-03-23T15:11:05;11.78;49.75
70214;DHT22;60138;55.808;37.078;2023-03-23T15:13:34;11.72;50.02
70214;DHT22;60138;55.808;37.078;2023-03-23T15:16:13;11.67;50.43
70214;DHT22;60138;55.808;37.078;2023-03-23T15:18:41;11.58;50.03
70214;DHT22;60138;55.808;37.078;2023-03-23T15:21:26;11.54;50.25
70214;DHT22;60138;55.808;37.078;2023-03-23T15:23:52;11.48;50.37
70214;DHT22;60138;55.808;37.078;2023-03-23T15:26:34;11.41;50.34
70214;DHT22;60138;55.808;37.078;2023-03-23T15:31:44;11.27;50.65
70214;DHT22;60138;55.808;37.078;2023-03-23T15:34:34;11.20;50.73
70214;DHT22;60138;55.808;37.078;2023-03-23T15:37:06;11.14;50.75
70214;DHT22;60138;55.808;37.078;2023-03-23T15:39:32;11.08;50.90
70214;DHT22;60138;55.808;37.078;2023-03-23T15:41:59;11.00;50.95
70214;DHT22;60138;55.808;37.078;2023-03-23T15:46:53;10.88;51.08
70214;DHT22;60138;55.808;37.078;2023-03-23T15:49:27;10.86;51.20
70214;DHT22;60138;55.808;37.078;2023-03-23T15:51:52;10.81;51.34
70214;DHT22;60138;55.808;37.078;2023-03-23T15:54:18;10.77;51.18
70214;DHT22;60138;55.808;37.078;2023-03-23T15:56:44;10.69;51.48
70214;DHT22;60138;55.808;37.078;2023-03-23T15:59:10;10.64;51.52
70214;DHT22;60138;55.808;37.078;2023-03-23T16:01:37;10.57;51.73
70214;DHT22;60138;55.808;37.078;2023-03-23T16:06:32;10.48;51.88
70214;DHT22;60138;55.808;37.078;2023-03-23T16:08:58;10.41;51.96
70214;DHT22;60138;55.808;37.078;2023-03-23T16:11:26;10.38;52.21
70214;DHT22;60138;55.808;37.078;2023-03-23T16:13:53;10.35;52.36
70214;DHT22;60138;55.808;37.078;2023-03-23T16:16:28;10.30;52.40
70214;DHT22;60138;55.808;37.078;2023-03-23T16:18:54;10.27;52.53
70214;DHT22;60138;55.808;37.078;2023-03-23T16:21:20;10.23;52.49
70214;DHT22;60138;55.808;37.078;2023-03-23T16:23:46;10.18;52.51
70214;DHT22;60138;55.808;37.078;2023-03-23T16:26:13;10.14;52.78
70214;DHT22;60138;55.808;37.078;2023-03-23T16:28:40;10.11;52.66
70214;DHT22;60138;55.808;37.078;2023-03-23T16:31:05;10.08;52.78
70214;DHT22;60138;55.808;37.078;2023-03-23T16:33:31;10.03;52.82
70214;DHT22;60138;55.808;37.078;2023-03-23T16:35:57;9.99;52.79
70214;DHT22;60138;55.808;37.078;2023-03-23T16:38:24;9.95;53.02
70214;DHT22;60138;55.808;37.078;2023-03-23T16:40:50;9.93;53.19
70214;DHT22;60138;55.808;37.078;2023-03-23T16:43:16;9.93;53.06
70214;DHT22;60138;55.808;37.078;2023-03-23T16:45:43;9.92;53.27
70214;DHT22;60138;55.808;37.078;2023-03-23T16:48:10;9.89;53.22
70214;DHT22;60138;55.808;37.078;2023-03-23T16:50:37;9.89;53.52
70214;DHT22;60138;55.808;37.078;2023-03-23T16:53:04;9.90;53.39
70214;DHT22;60138;55.808;37.078;2023-03-23T16:55:30;9.91;53.46
70214;DHT22;60138;55.808;37.078;2023-03-23T16:57:56;9.89;53.62
70214;DHT22;60138;55.808;37.078;2023-03-23T17:00:22;9.88;53.45
70214;DHT22;60138;55.808;37.078;2023-03-23T17:02:50;9.84;53.29
70214;DHT22;60138;55.808;37.078;2023-03-23T17:05:17;9.81;53.56
70214;DHT22;60138;55.808;37.078;2023-03-23T17:07:43;9.78;53.62
70214;DHT22;60138;55.808;37.078;2023-03-23T17:10:10;9.76;53.71
70214;DHT22;60138;55.808;37.078;2023-03-23T17:12:36;9.74;53.75
70214;DHT22;60138;55.808;37.078;2023-03-23T17:15:02;9.72;53.86
70214;DHT22;60138;55.808;37.078;2023-03-23T17:17:28;9.66;53.86
70214;DHT22;60138;55.808;37.078;2023-03-23T17:19:54;9.65;54.00
70214;DHT22;60138;55.808;37.078;2023-03-23T17:22:20;9.64;53.93
70214;DHT22;60138;55.808;37.078;2023-03-23T17:24:46;9.63;53.94
70214;DHT22;60138;55.808;37.078;2023-03-23T17:27:12;9.62;54.12
70214;DHT22;60138;55.808;37.078;2023-03-23T17:29:38;9.62;54.11
70214;DHT22;60138;55.808;37.078;2023-03-23T17:32:04;9.60;54.12
70214;DHT22;60138;55.808;37.078;2023-03-23T17:34:29;9.55;54.26
70214;DHT22;60138;55.808;37.078;2023-03-23T17:36:55;9.54;54.38
70214;DHT22;60138;55.808;37.078;2023-03-23T17:39:21;9.53;54.33
70214;DHT22;60138;55.808;37.078;2023-03-23T17:41:47;9.52;54.39
70214;DHT22;60138;55.808;37.078;2023-03-23T17:44:13;9.52;54.42
70214;DHT22;60138;55.808;37.078;2023-03-23T17:46:39;9.50;54.48
70214;DHT22;60138;55.808;37.078;2023-03-23T17:49:05;9.48;54.55
70214;DHT22;60138;55.808;37.078;2023-03-23T17:51:31;9.48;54.64
70214;DHT22;60138;55.808;37.078;2023-03-23T17:53:56;9.48;54.56
70214;DHT22;60138;55.808;37.078;2023-03-23T17:56:22;9.46;54.59
70214;DHT22;60138;55.808;37.078;2023-03-23T17:58:48;9.48;54.65
70214;DHT22;60138;55.808;37.078;2023-03-23T18:01:13;9.48;54.76
70214;DHT22;60138;55.808;37.078;2023-03-23T18:03:39;9.44;54.64